Time;durP1;ratioP1;P1;durP2;ratioP2;P2;SDS_P1;SDS_P2;PMS_P1;PMS_P2;Temp;Humidity;BMP_temperature;BMP_pressure;BME280_temperature;BME280_humidity;BME280_pressure;Samples;Min_cycle;Max_cycle;Signal;HPM_P1;HPM_P2
2021/08/20 00:00:10;;;;;;;10.23;5.10;;;;;;;19.98;60.75;100058.22;5111422;28;20064;-22
2021/08/20 00:02:35;;;;;;;7.60;5.28;;;;;;;19.95;61.12;100061.47;5111337;28;20028;-22
2021/08/20 00:05:01;;;;;;;8.30;5.28;;;;;;;20.16;60.36;100061.31;5111610;28;20487;-23
2021/08/20 00:07:26;;;;;;;7.80;5.22;;;;;;;20.13;60.55;100053.78;5111470;28;20766;-22
2021/08/20 00:09:55;;;;;;;8.75;5.55;;;;;;;20.25;60.71;100057.72;5111187;28;20035;-22
2021/08/20 00:12:21;;;;;;;9.88;5.68;;;;;;;20.13;61.27;100054.56;5092884;28;20324;-22
2021/08/20 00:14:46;;;;;;;11.40;5.55;;;;;;;20.07;61.48;100066.53;5111199;28;20063;-22
2021/08/20 00:17:12;;;;;;;10.68;5.85;;;;;;;20.64;59.65;100064.19;5111168;28;20031;-22
2021/08/20 00:19:38;;;;;;;9.63;5.65;;;;;;;21.12;57.54;100068.81;5092894;28;20106;-22
2021/08/20 00:22:05;;;;;;;11.02;6.10;;;;;;;21.06;57.40;100059.94;5110936;28;20036;-22
2021/08/20 00:24:30;;;;;;;8.73;5.78;;;;;;;20.93;57.67;100068.78;5111055;28;20110;-22
2021/08/20 00:26:56;;;;;;;17.25;6.60;;;;;;;21.38;56.48;100074.75;5110934;28;20055;-22
2021/08/20 00:29:22;;;;;;;8.52;5.80;;;;;;;21.17;57.23;100077.72;5110960;28;20495;-22
2021/08/20 00:31:47;;;;;;;16.40;6.43;;;;;;;21.37;56.39;100065.00;5110664;28;20118;-22
2021/08/20 00:34:13;;;;;;;7.70;5.38;;;;;;;20.74;58.73;100083.06;5110603;28;20103;-24
2021/08/20 00:36:38;;;;;;;8.15;5.10;;;;;;;20.51;59.54;100076.44;5111057;28;20395;-22
2021/08/20 00:39:04;;;;;;;10.18;5.78;;;;;;;20.55;58.77;100071.28;5110791;28;20023;-22
2021/08/20 00:41:29;;;;;;;8.38;5.05;;;;;;;20.12;60.62;100079.22;5110672;28;20488;-22
2021/08/20 00:43:55;;;;;;;7.55;4.63;;;;;;;19.87;61.65;100073.69;5092448;28;20027;-22
2021/08/20 00:46:20;;;;;;;7.68;5.55;;;;;;;19.79;61.78;100076.19;5110199;28;20530;-22
2021/08/20 00:48:46;;;;;;;8.45;4.88;;;;;;;19.76;62.69;100071.34;5092646;28;20031;-22
2021/08/20 00:51:16;;;;;;;9.27;4.70;;;;;;;19.67;61.84;100052.94;5110557;28;20826;-22
2021/08/20 00:53:41;;;;;;;8.90;5.55;;;;;;;19.67;63.45;100066.47;5110249;28;20031;-22
2021/08/20 00:56:07;;;;;;;7.47;5.20;;;;;;;19.89;61.71;100053.66;5092028;28;20086;-22
2021/08/20 00:58:33;;;;;;;8.95;5.93;;;;;;;20.15;61.01;100054.31;5110431;28;20048;-22
2021/08/20 01:00:59;;;;;;;7.38;5.53;;;;;;;20.12;60.65;100065.69;5110346;28;20130;-22
2021/08/20 01:03:26;;;;;;;9.90;5.65;;;;;;;20.09;60.85;100058.13;5110236;28;20487;-23
2021/08/20 01:05:53;;;;;;;9.80;5.82;;;;;;;19.96;61.23;100065.81;5109976;28;20552;-23
2021/08/20 01:08:26;;;;;;;8.82;5.78;;;;;;;20.07;60.49;100051.09;5091585;28;20039;-23
2021/08/20 01:10:52;;;;;;;9.55;5.95;;;;;;;19.84;62.16;100057.22;5110276;28;20100;-22
2021/08/20 01:13:18;;;;;;;8.98;6.03;;;;;;;19.77;62.79;100067.53;5109947;28;20027;-23
2021/08/20 01:15:44;;;;;;;9.70;6.03;;;;;;;19.65;63.21;100065.94;5110092;28;20027;-22
2021/08/20 01:18:09;;;;;;;9.30;6.10;;;;;;;19.75;62.40;100058.91;5091948;28;20038;-22
2021/08/20 01:20:35;;;;;;;8.95;5.47;;;;;;;19.78;62.21;100045.63;5110006;28;20035;-22
2021/08/20 01:23:03;;;;;;;8.10;5.93;;;;;;;19.75;62.74;100058.91;5109883;28;20039;-22
2021/08/20 01:25:29;;;;;;;9.55;6.25;;;;;;;19.44;63.53;100069.84;5109894;28;20032;-22
2021/08/20 01:28:07;;;;;;;9.68;5.75;;;;;;;19.35;64.62;100066.09;5109647;28;20555;-22
2021/08/20 01:30:33;;;;;;;8.35;5.45;;;;;;;19.57;63.78;100074.63;5091860;28;20885;-24
2021/08/20 01:32:58;;;;;;;8.52;5.70;;;;;;;19.67;63.25;100074.59;5109864;28;20023;-23
2021/08/20 01:35:24;;;;;;;9.30;5.65;;;;;;;20.00;62.14;100077.69;5109632;28;20028;-23
2021/08/20 01:37:49;;;;;;;8.48;6.00;;;;;;;20.33;60.48;100079.84;5109482;28;20495;-22
2021/08/20 01:40:15;;;;;;;9.23;6.13;;;;;;;20.02;61.65;100072.81;5109365;28;20036;-22
2021/08/20 01:42:40;;;;;;;9.75;6.15;;;;;;;19.63;62.51;100078.94;5109494;28;20061;-22
2021/08/20 01:45:06;;;;;;;9.05;6.15;;;;;;;19.40;63.59;100057.97;5109608;28;20866;-22
2021/08/20 01:47:32;;;;;;;10.27;6.03;;;;;;;19.20;64.57;100054.25;5109364;28;20053;-23
2021/08/20 01:49:57;;;;;;;10.45;6.30;;;;;;;19.24;64.55;100076.16;5109798;28;20096;-22
2021/08/20 01:52:22;;;;;;;16.75;6.32;;;;;;;19.52;63.86;100080.09;5091253;28;20035;-22
2021/08/20 01:54:48;;;;;;;9.98;5.90;;;;;;;19.04;65.41;100063.50;5109137;28;20036;-22
2021/08/20 01:57:13;;;;;;;10.13;6.68;;;;;;;18.83;65.55;100068.97;5108883;28;20104;-22
2021/08/20 01:59:39;;;;;;;10.35;6.53;;;;;;;18.82;65.88;100075.47;5109041;28;20060;-22
2021/08/20 02:02:05;;;;;;;10.45;6.70;;;;;;;19.06;65.09;100074.84;5108701;28;20487;-22
2021/08/20 02:04:30;;;;;;;11.13;6.60;;;;;;;19.71;62.29;100079.47;5109132;28;20032;-22
2021/08/20 02:06:56;;;;;;;9.75;6.40;;;;;;;19.62;63.19;100085.44;5108908;28;20449;-22
2021/08/20 02:09:21;;;;;;;9.57;6.50;;;;;;;19.00;65.50;100059.72;5109053;28;20031;-23
2021/08/20 02:11:47;;;;;;;11.32;6.43;;;;;;;18.62;66.66;100072.75;5108747;28;20035;-22
2021/08/20 02:14:12;;;;;;;10.20;6.18;;;;;;;18.64;66.08;100071.41;5108783;28;20027;-22
2021/08/20 02:16:38;;;;;;;9.38;6.18;;;;;;;18.93;65.49;100081.66;5108812;28;20023;-22
2021/08/20 02:19:03;;;;;;;9.45;6.53;;;;;;;18.66;66.75;100079.25;5109074;28;20023;-22
2021/08/20 02:21:29;;;;;;;10.48;6.80;;;;;;;19.52;63.32;100077.38;5108778;28;20039;-22
2021/08/20 02:23:54;;;;;;;10.13;6.80;;;;;;;19.60;62.57;100071.38;5108736;28;20395;-22
2021/08/20 02:26:20;;;;;;;12.48;7.38;;;;;;;19.26;64.16;100080.19;5089994;28;20373;-22
2021/08/20 02:28:45;;;;;;;9.30;6.20;;;;;;;19.12;65.07;100067.53;5108687;28;20023;-22
2021/08/20 02:31:10;;;;;;;8.95;6.60;;;;;;;19.01;65.38;100080.28;5108695;28;20035;-22
2021/08/20 02:33:40;;;;;;;10.02;6.50;;;;;;;19.72;62.48;100081.13;5108477;28;20407;-22
2021/08/20 02:36:06;;;;;;;11.73;6.75;;;;;;;19.66;62.13;100080.28;5107883;28;20024;-22
2021/08/20 02:38:33;;;;;;;11.73;6.95;;;;;;;19.46;62.87;100081.19;5108319;28;20024;-22
2021/08/20 02:40:58;;;;;;;12.45;7.70;;;;;;;19.26;63.53;100080.19;5108124;28;20039;-22
2021/08/20 02:43:24;;;;;;;10.93;7.03;;;;;;;18.72;65.13;100097.06;5108291;28;20031;-22
2021/08/20 02:45:49;;;;;;;11.38;7.05;;;;;;;18.72;65.84;100080.06;5108195;28;20035;-22
2021/08/20 02:48:15;;;;;;;10.00;7.20;;;;;;;18.37;66.80;100096.00;5108581;28;20039;-22
2021/08/20 02:50:40;;;;;;;13.13;8.32;;;;;;;18.83;65.02;100098.69;5108195;28;20847;-22
2021/08/20 02:53:05;;;;;;;11.85;7.68;;;;;;;19.17;64.08;100091.88;5108552;28;20031;-22
2021/08/20 02:55:31;;;;;;;10.77;7.72;;;;;;;18.98;64.25;100094.31;5108106;28;20129;-22
2021/08/20 02:57:57;;;;;;;14.52;7.97;;;;;;;19.34;63.71;100091.53;5107703;28;20136;-22
2021/08/20 03:00:22;;;;;;;9.95;7.93;;;;;;;19.31;63.47;100089.38;5089818;28;20046;-22
2021/08/20 03:02:48;;;;;;;11.60;7.55;;;;;;;19.13;63.79;100091.59;5108577;28;20843;-22
2021/08/20 03:05:13;;;;;;;24.17;7.55;;;;;;;19.00;64.59;100092.16;5107954;28;20020;-22
2021/08/20 03:07:39;;;;;;;12.77;7.07;;;;;;;19.19;64.40;100100.50;5090233;28;20104;-22
2021/08/20 03:10:04;;;;;;;13.77;7.85;;;;;;;19.32;63.89;100099.91;5107483;28;20788;-22
2021/08/20 03:12:30;;;;;;;11.45;7.47;;;;;;;19.25;63.77;100084.00;5107647;28;20088;-22
2021/08/20 03:14:56;;;;;;;9.55;6.97;;;;;;;19.63;63.16;100116.81;5107691;28;20027;-22
2021/08/20 03:17:21;;;;;;;10.70;7.47;;;;;;;19.57;62.58;100117.91;5107080;28;20046;-22
2021/08/20 03:19:46;;;;;;;14.50;7.93;;;;;;;19.65;62.56;100116.53;5107917;28;20472;-22
2021/08/20 03:22:12;;;;;;;12.15;6.55;;;;;;;19.55;63.17;100120.09;5107599;28;20035;-22
2021/08/20 03:24:37;;;;;;;11.25;7.90;;;;;;;19.84;62.71;100127.59;5107735;28;20046;-22
2021/08/20 03:27:03;;;;;;;10.60;7.05;;;;;;;19.64;63.18;100123.84;5107767;28;20456;-22
2021/08/20 03:29:29;;;;;;;11.30;7.20;;;;;;;19.26;64.47;100134.25;5107600;28;20038;-22
2021/08/20 03:31:54;;;;;;;10.55;7.03;;;;;;;19.53;64.12;100133.09;5107276;28;20027;-22
2021/08/20 03:34:20;;;;;;;15.43;7.82;;;;;;;20.50;61.01;100139.06;5107076;28;20027;-22
2021/08/20 03:36:45;;;;;;;14.30;7.38;;;;;;;20.94;59.11;100133.53;5107764;28;20086;-22
2021/08/20 03:39:10;;;;;;;10.98;6.60;;;;;;;21.05;58.71;100140.47;5107480;28;20064;-22
2021/08/20 03:41:36;;;;;;;12.20;7.20;;;;;;;21.21;57.97;100140.31;5089354;28;20423;-22
2021/08/20 03:44:01;;;;;;;10.60;6.80;;;;;;;21.49;57.21;100141.38;5107421;28;20028;-22
2021/08/20 03:46:27;;;;;;;10.13;7.43;;;;;;;21.55;56.72;100121.22;5107493;28;20084;-22
2021/08/20 03:48:52;;;;;;;10.98;7.30;;;;;;;21.52;57.00;100140.00;5107429;28;20032;-22
2021/08/20 03:51:18;;;;;;;11.75;8.50;;;;;;;21.10;57.70;100136.91;5107293;28;20035;-23
2021/08/20 03:53:43;;;;;;;11.82;7.72;;;;;;;21.50;56.76;100142.19;5107249;28;20028;-22
2021/08/20 03:56:09;;;;;;;14.20;8.20;;;;;;;21.65;56.22;100137.38;5107375;28;20395;-22
2021/08/20 03:58:34;;;;;;;10.80;7.28;;;;;;;21.86;55.69;100148.78;5107237;28;20058;-22
2021/08/20 04:01:00;;;;;;;10.82;7.65;;;;;;;21.89;55.25;100150.09;5107752;28;20031;-22
2021/08/20 04:03:25;;;;;;;12.30;7.68;;;;;;;21.82;55.72;100146.94;5106951;28;20035;-22
2021/08/20 04:05:51;;;;;;;11.63;8.27;;;;;;;21.87;55.45;100155.03;5107158;28;20549;-22
2021/08/20 04:08:16;;;;;;;11.18;8.20;;;;;;;21.63;55.94;100161.28;5107265;28;20059;-22
2021/08/20 04:10:42;;;;;;;11.10;8.27;;;;;;;21.85;55.38;100158.03;5107318;28;20146;-22
2021/08/20 04:13:08;;;;;;;13.30;7.78;;;;;;;21.75;55.46;100149.22;5107288;28;20057;-22
2021/08/20 04:15:34;;;;;;;13.00;7.40;;;;;;;21.83;55.50;100162.94;5107240;28;20111;-22
2021/08/20 04:17:59;;;;;;;12.25;7.50;;;;;;;21.65;55.98;100164.50;5107065;28;20040;-22
2021/08/20 04:20:25;;;;;;;11.48;8.18;;;;;;;21.63;56.27;100172.13;5107217;28;20027;-22
2021/08/20 04:22:50;;;;;;;14.15;8.18;;;;;;;21.11;57.22;100162.94;5106970;28;20031;-22
2021/08/20 04:25:16;;;;;;;15.60;8.07;;;;;;;21.39;56.95;100174.84;5107337;28;20516;-22
2021/08/20 04:27:41;;;;;;;11.73;8.90;;;;;;;21.75;55.76;100170.94;5107204;28;20076;-23
2021/08/20 04:30:07;;;;;;;13.63;9.13;;;;;;;21.93;55.50;100181.00;5109371;28;20399;-22
2021/08/20 04:32:33;;;;;;;14.98;9.95;;;;;;;21.87;55.30;100187.59;5111012;28;20091;-22
2021/08/20 04:34:58;;;;;;;12.77;9.75;;;;;;;21.31;56.91;100171.94;5110908;28;20143;-22
2021/08/20 04:37:24;;;;;;;12.30;8.82;;;;;;;21.73;55.74;100183.97;5110821;28;20031;-22
2021/08/20 04:39:50;;;;;;;13.35;9.73;;;;;;;21.33;56.94;100177.88;5110542;28;20042;-22
2021/08/20 04:42:15;;;;;;;12.27;9.15;;;;;;;21.34;57.25;100163.25;5110472;28;20032;-21
2021/08/20 04:44:41;;;;;;;14.45;9.30;;;;;;;21.44;57.33;100157.72;5110721;28;20384;-22
2021/08/20 04:47:06;;;;;;;12.65;8.98;;;;;;;21.54;57.21;100179.31;5111020;28;20028;-22
2021/08/20 04:49:32;;;;;;;12.48;8.98;;;;;;;21.08;57.84;100185.19;5110353;28;20028;-23
2021/08/20 04:51:57;;;;;;;12.27;9.60;;;;;;;21.50;56.89;100182.91;5110445;28;20028;-22
2021/08/20 04:54:23;;;;;;;11.88;8.85;;;;;;;21.87;55.65;100187.59;5110160;28;20081;-22
2021/08/20 04:56:49;;;;;;;12.40;9.20;;;;;;;21.47;57.62;100176.13;5110328;28;20484;-22
2021/08/20 04:59:15;;;;;;;10.05;8.07;;;;;;;21.45;56.58;100172.88;5110161;28;20480;-22
2021/08/20 05:01:40;;;;;;;11.82;8.88;;;;;;;21.54;56.24;100173.09;5110240;28;20488;-22
2021/08/20 05:04:06;;;;;;;13.15;8.70;;;;;;;21.89;55.12;100185.41;5091800;28;20039;-22
2021/08/20 05:06:31;;;;;;;12.40;8.52;;;;;;;21.73;55.76;100170.41;5110241;28;20449;-21
2021/08/20 05:08:57;;;;;;;12.75;8.35;;;;;;;21.90;55.02;100181.56;5091959;28;20039;-22
2021/08/20 05:11:22;;;;;;;12.18;8.95;;;;;;;21.63;55.69;100193.84;5110380;28;20776;-22
2021/08/20 05:13:48;;;;;;;13.32;8.68;;;;;;;21.50;57.25;100183.69;5110131;28;20031;-22
2021/08/20 05:16:13;;;;;;;11.13;8.05;;;;;;;21.62;56.37;100170.53;5109727;28;20088;-22
2021/08/20 05:18:39;;;;;;;16.92;12.77;;;;;;;21.78;56.46;100189.31;5110081;28;20517;-23
2021/08/20 05:21:04;;;;;;;13.02;9.20;;;;;;;21.66;56.03;100190.56;5110444;28;20031;-22
2021/08/20 05:23:30;;;;;;;11.85;8.52;;;;;;;21.52;56.55;100191.56;5110182;28;20834;-22
2021/08/20 05:25:55;;;;;;;10.75;8.27;;;;;;;21.34;56.68;100185.75;5109798;28;20019;-22
2021/08/20 05:28:21;;;;;;;11.23;8.07;;;;;;;21.80;56.00;100187.13;5109531;28;20100;-24
2021/08/20 05:30:46;;;;;;;11.18;7.78;;;;;;;21.82;56.11;100179.50;5109770;28;20384;-22
2021/08/20 05:33:12;;;;;;;11.50;7.70;;;;;;;21.45;55.98;100167.47;5109612;28;20501;-22
2021/08/20 05:35:38;;;;;;;9.90;7.32;;;;;;;21.70;56.75;100179.13;5109519;28;20031;-22
2021/08/20 05:38:04;;;;;;;12.27;8.10;;;;;;;21.96;56.31;100185.03;5109289;28;20084;-22
2021/08/20 05:40:30;;;;;;;10.25;6.72;;;;;;;22.37;53.70;100170.91;5108617;28;20465;-22
2021/08/20 05:42:55;;;;;;;10.80;6.35;;;;;;;22.09;53.30;100184.31;5109346;28;20039;-22
2021/08/20 05:45:20;;;;;;;10.27;6.40;;;;;;;22.39;53.65;100193.16;5109726;28;20032;-22
2021/08/20 05:47:46;;;;;;;11.65;7.22;;;;;;;22.17;53.65;100190.97;5109520;28;20035;-22
2021/08/20 05:50:11;;;;;;;13.40;7.93;;;;;;;22.32;53.21;100181.84;5109237;28;20031;-22
2021/08/20 05:52:38;;;;;;;9.95;6.93;;;;;;;22.63;53.45;100196.56;5109209;28;20410;-22
2021/08/20 05:55:08;;;;;;;11.27;8.13;;;;;;;22.42;53.35;100193.38;5109279;28;20041;-22
2021/08/20 05:57:33;;;;;;;8.32;6.18;;;;;;;22.34;54.29;100194.03;5109097;28;20023;-22
2021/08/20 05:59:58;;;;;;;9.65;7.05;;;;;;;22.10;54.59;100196.00;5109082;28;20435;-22
2021/08/20 06:02:24;;;;;;;8.93;7.18;;;;;;;22.44;55.10;100202.03;5108809;28;20392;-22
2021/08/20 06:04:49;;;;;;;10.57;6.70;;;;;;;22.53;54.25;100193.22;5109279;28;20039;-22
2021/08/20 06:07:15;;;;;;;8.63;6.53;;;;;;;22.41;54.74;100194.50;5109219;28;20027;-22
2021/08/20 06:09:41;;;;;;;10.30;6.80;;;;;;;22.72;53.80;100195.91;5109163;28;20031;-22
2021/08/20 06:12:07;;;;;;;11.07;7.22;;;;;;;22.76;53.30;100186.88;5108722;28;20035;-22
2021/08/20 06:14:33;;;;;;;9.20;6.50;;;;;;;23.04;53.39;100203.28;5108835;28;20024;-22
2021/08/20 06:16:59;;;;;;;11.32;7.40;;;;;;;23.06;53.85;100195.63;5090259;28;20217;-22
2021/08/20 06:19:25;;;;;;;9.25;6.63;;;;;;;22.75;53.95;100189.88;5108793;28;20135;-22
2021/08/20 06:21:50;;;;;;;10.75;6.50;;;;;;;22.69;53.15;100175.56;5108547;28;20027;-22
2021/08/20 06:24:16;;;;;;;9.27;6.47;;;;;;;23.03;53.45;100196.25;5108666;28;20066;-22
2021/08/20 06:26:41;;;;;;;8.82;6.20;;;;;;;22.71;54.06;100199.75;5108448;28;20063;-22
2021/08/20 06:29:07;;;;;;;8.82;6.47;;;;;;;23.01;54.33;100195.69;5108546;28;20031;-22
2021/08/20 06:31:32;;;;;;;9.63;6.60;;;;;;;23.07;52.97;100180.94;5108593;28;20492;-22
2021/08/20 06:33:58;;;;;;;9.30;6.32;;;;;;;23.49;52.45;100194.56;5108266;28;20036;-22
2021/08/20 06:36:24;;;;;;;10.50;6.43;;;;;;;23.73;51.29;100195.16;5108064;28;20020;-22
2021/08/20 06:38:50;;;;;;;8.57;6.07;;;;;;;23.73;51.07;100178.03;5108447;28;20092;-22
2021/08/20 06:41:15;;;;;;;10.82;6.70;;;;;;;23.58;50.34;100193.56;5108350;28;20039;-22
2021/08/20 06:43:41;;;;;;;9.43;6.68;;;;;;;23.62;51.79;100185.59;5108342;28;20039;-22
2021/08/20 06:46:06;;;;;;;8.85;6.38;;;;;;;23.41;52.44;100196.88;5108380;28;20031;-22
2021/08/20 06:48:32;;;;;;;10.65;6.40;;;;;;;23.85;51.67;100200.13;5108679;28;20042;-22
2021/08/20 06:50:57;;;;;;;10.85;5.60;;;;;;;23.99;50.52;100192.75;5108021;28;20031;-21
2021/08/20 06:53:23;;;;;;;36.13;9.75;;;;;;;23.71;52.66;100196.59;5108085;28;20035;-22
2021/08/20 06:55:48;;;;;;;10.93;7.65;;;;;;;23.63;51.20;100204.34;5108056;28;20024;-22
2021/08/20 06:58:14;;;;;;;14.38;10.40;;;;;;;23.92;49.77;100199.72;5107751;28;20495;-21
2021/08/20 07:00:39;;;;;;;16.42;11.10;;;;;;;24.59;48.38;100199.84;5108221;28;20027;-22
2021/08/20 07:03:04;;;;;;;16.67;13.05;;;;;;;24.79;48.70;100189.56;5107919;28;20035;-22
2021/08/20 07:05:31;;;;;;;15.43;10.73;;;;;;;25.08;46.94;100202.75;5107758;28;20039;-22
2021/08/20 07:07:56;;;;;;;15.00;8.98;;;;;;;24.91;46.83;100202.63;5108228;28;20811;-22
2021/08/20 07:10:22;;;;;;;12.73;9.18;;;;;;;24.99;47.22;100199.97;5107740;28;20031;-21
2021/08/20 07:12:47;;;;;;;17.58;9.25;;;;;;;25.27;46.88;100202.53;5107835;28;20581;-22
2021/08/20 07:15:13;;;;;;;14.48;10.52;;;;;;;24.75;48.99;100200.28;5107519;28;20073;-22
2021/08/20 07:17:39;;;;;;;14.05;10.00;;;;;;;24.83;48.74;100188.63;5107786;28;20035;-22
2021/08/20 07:20:05;;;;;;;12.20;8.93;;;;;;;24.96;46.96;100195.13;5107416;28;20031;-21
2021/08/20 07:22:31;;;;;;;12.25;9.05;;;;;;;24.65;49.85;100200.53;5107998;28;20200;-22
2021/08/20 07:24:56;;;;;;;10.43;7.65;;;;;;;24.71;47.85;100191.13;5108256;28;20042;-21
2021/08/20 07:27:22;;;;;;;10.52;7.13;;;;;;;24.85;47.13;100188.34;5107559;28;20035;-21
2021/08/20 07:29:48;;;;;;;11.45;6.72;;;;;;;25.14;46.64;100197.97;5107579;28;20032;-22
2021/08/20 07:32:13;;;;;;;9.35;7.20;;;;;;;25.33;46.36;100186.81;5107370;28;20548;-21
2021/08/20 07:34:39;;;;;;;9.98;6.90;;;;;;;25.49;47.07;100201.66;5107646;28;20028;-22
2021/08/20 07:37:05;;;;;;;8.93;5.93;;;;;;;25.14;46.91;100196.03;5107654;28;20035;-22
2021/08/20 07:39:31;;;;;;;8.20;5.53;;;;;;;24.96;47.20;100199.78;5107710;28;20034;-22
2021/08/20 07:41:57;;;;;;;10.07;5.78;;;;;;;25.13;46.19;100178.06;5107620;28;20075;-21
2021/08/20 07:44:22;;;;;;;11.50;6.15;;;;;;;25.88;44.41;100191.81;5107623;28;20035;-22
2021/08/20 07:46:48;;;;;;;7.85;4.25;;;;;;;25.13;45.63;100183.50;5089322;28;20384;-22
2021/08/20 07:49:13;;;;;;;6.57;4.55;;;;;;;25.52;46.89;100195.59;5107485;28;20254;-22
2021/08/20 07:51:39;;;;;;;7.53;4.75;;;;;;;25.49;45.47;100193.47;5107433;28;20036;-22
2021/08/20 07:54:04;;;;;;;7.57;4.68;;;;;;;25.30;44.63;100179.28;5107311;28;20028;-22
2021/08/20 07:56:30;;;;;;;6.82;4.70;;;;;;;25.82;42.79;100187.63;5107261;28;20039;-22
2021/08/20 07:58:55;;;;;;;8.07;4.40;;;;;;;25.98;45.49;100183.34;5106965;28;20404;-22
2021/08/20 08:01:21;;;;;;;6.40;4.68;;;;;;;25.79;42.17;100183.59;5107620;28;20070;-22
2021/08/20 08:03:46;;;;;;;6.80;4.18;;;;;;;25.72;42.83;100190.66;5107578;28;20051;-21
2021/08/20 08:06:13;;;;;;;6.35;4.32;;;;;;;26.13;41.47;100197.66;5111626;28;20399;-21
2021/08/20 08:08:41;;;;;;;8.95;4.57;;;;;;;25.97;42.16;100175.47;5111421;28;20114;-22
2021/08/20 08:11:07;;;;;;;9.43;4.10;;;;;;;26.29;40.60;100195.28;5111170;28;20151;-22
2021/08/20 08:13:33;;;;;;;6.80;3.88;;;;;;;26.71;39.06;100193.66;5111582;28;20415;-22
2021/08/20 08:15:58;;;;;;;6.03;3.88;;;;;;;26.58;41.54;100187.25;5111300;28;20015;-22
2021/08/20 08:18:24;;;;;;;6.63;4.25;;;;;;;26.63;40.70;100199.94;5111196;28;20050;-22
2021/08/20 08:20:49;;;;;;;5.75;3.85;;;;;;;26.72;40.57;100192.53;5111413;28;20593;-22
2021/08/20 08:23:15;;;;;;;6.70;4.10;;;;;;;26.61;40.81;100202.22;5111202;28;20027;-22
2021/08/20 08:25:40;;;;;;;6.78;4.00;;;;;;;26.90;40.00;100203.44;5110917;28;20092;-21
2021/08/20 08:28:06;;;;;;;8.57;4.10;;;;;;;27.43;39.78;100205.72;5110728;28;20036;-22
2021/08/20 08:30:39;;;;;;;6.60;4.50;;;;;;;27.20;39.34;100185.16;5111120;28;20130;-21
2021/08/20 08:33:06;;;;;;;9.48;4.50;;;;;;;27.10;40.14;100208.22;5110750;28;20023;-22
2021/08/20 08:35:31;;;;;;;6.70;4.10;;;;;;;26.96;38.74;100183.00;5110374;28;20022;-22
2021/08/20 08:38:13;;;;;;;7.38;4.47;;;;;;;26.84;39.16;100200.88;5110669;28;20027;-22
2021/08/20 08:40:42;;;;;;;5.65;3.85;;;;;;;26.70;37.72;100199.47;5110973;28;20055;-21
2021/08/20 08:43:08;;;;;;;7.50;4.00;;;;;;;27.23;37.78;100182.59;5111198;28;20033;-22
2021/08/20 08:45:33;;;;;;;6.63;4.25;;;;;;;27.71;36.65;100194.31;5110537;28;20027;-22
2021/08/20 08:48:01;;;;;;;6.20;4.07;;;;;;;27.64;36.87;100194.84;5110806;28;20035;-21
2021/08/20 08:50:26;;;;;;;;;;;;;;;27.47;37.27;100202.31;5111120;28;20023;-22
2021/08/20 08:52:52;;;;;;;6.93;3.45;;;;;;;27.68;36.77;100199.63;5110488;28;19907;-22
2021/08/20 08:55:17;;;;;;;6.78;3.25;;;;;;;27.98;36.10;100176.59;5110334;28;20039;-22
2021/08/20 08:57:43;;;;;;;5.90;3.40;;;;;;;27.47;35.48;100183.94;5110398;28;20023;-21
2021/08/20 09:00:08;;;;;;;6.88;3.22;;;;;;;28.00;35.66;100195.44;5110236;28;20839;-22
2021/08/20 09:02:34;;;;;;;7.78;3.53;;;;;;;28.09;35.74;100187.16;5110340;28;20089;-22
2021/08/20 09:05:02;;;;;;;5.90;3.60;;;;;;;28.13;36.14;100177.91;5110404;28;20264;-22
2021/08/20 09:07:29;;;;;;;5.55;3.70;;;;;;;28.25;35.93;100175.22;5075303;28;20034;-22
2021/08/20 09:10:19;;;;;;;5.47;3.75;;;;;;;27.79;37.20;100185.22;5109959;28;20031;-22
2021/08/20 09:12:57;;;;;;;6.45;3.88;;;;;;;28.28;36.59;100179.28;5110360;28;20092;-22
2021/08/20 09:15:29;;;;;;;5.50;3.40;;;;;;;28.24;35.66;100165.41;5108789;28;20035;-22
2021/08/20 09:18:02;;;;;;;6.03;3.65;;;;;;;28.57;36.18;100158.38;5110031;28;20047;-22
2021/08/20 09:20:32;;;;;;;6.68;3.85;;;;;;;28.82;36.43;100176.50;5110506;28;20036;-22
2021/08/20 09:22:59;;;;;;;6.45;3.38;;;;;;;28.55;35.50;100177.13;5109774;28;20032;-22
2021/08/20 09:25:34;;;;;;;5.50;3.28;;;;;;;28.10;34.82;100173.13;5109905;28;20083;-22
2021/08/20 09:28:20;;;;;;;5.10;3.33;;;;;;;28.14;35.52;100173.25;5109860;28;20043;-22
2021/08/20 09:31:09;;;;;;;5.57;3.58;;;;;;;28.92;34.37;100169.00;5109741;28;20026;-21
2021/08/20 09:33:37;;;;;;;6.40;3.25;;;;;;;28.28;31.85;100157.34;5096778;28;20044;-22
2021/08/20 09:36:21;;;;;;;5.93;3.10;;;;;;;27.81;32.25;100143.81;5109625;28;20020;-22
2021/08/20 09:38:49;;;;;;;4.50;2.83;;;;;;;28.29;31.72;100161.66;5110076;28;20783;-21
2021/08/20 09:41:17;;;;;;;6.70;3.30;;;;;;;28.60;33.32;100157.69;5109843;28;20201;-22
2021/08/20 09:43:46;;;;;;;5.65;3.03;;;;;;;28.60;31.71;100143.97;5109539;28;20035;-21
2021/08/20 09:46:16;;;;;;;5.78;3.22;;;;;;;28.95;32.88;100158.16;5109176;28;20028;-22
2021/08/20 09:48:47;;;;;;;5.97;2.80;;;;;;;28.93;32.39;100145.88;5109522;28;20038;-22
2021/08/20 09:51:31;;;;;;;5.75;3.22;;;;;;;29.76;31.31;100146.63;5109253;28;20028;-22
2021/08/20 09:54:21;;;;;;;11.70;3.30;;;;;;;29.88;30.45;100146.59;5109329;28;20118;-22
2021/08/20 09:56:47;;;;;;;4.28;2.75;;;;;;;29.34;30.74;100131.19;5096540;28;20122;-21
2021/08/20 09:59:13;;;;;;;5.93;3.55;;;;;;;29.33;31.62;100129.56;5105050;28;20047;-22
2021/08/20 10:01:46;;;;;;;5.70;3.00;;;;;;;29.99;31.09;100135.91;5097848;28;20081;-21
2021/08/20 10:04:13;;;;;;;6.40;3.20;;;;;;;30.13;28.42;100121.78;5096922;28;20111;-21
2021/08/20 10:06:40;;;;;;;6.18;3.15;;;;;;;30.13;30.53;100139.06;5098846;28;20020;-21
2021/08/20 10:09:20;;;;;;;4.82;2.92;;;;;;;29.80;30.46;100126.34;5080638;28;20036;-22
2021/08/20 10:11:48;;;;;;;6.70;3.30;;;;;;;30.22;30.51;100125.19;5098906;28;20028;-22
2021/08/20 10:14:13;;;;;;;;;;;;;;;30.56;29.20;100134.78;5097063;28;20028;-21
2021/08/20 10:16:39;;;;;;;6.13;2.95;;;;;;;30.65;29.01;100131.88;5098459;28;20375;-22
2021/08/20 10:19:06;;;;;;;5.80;3.58;;;;;;;29.91;29.06;100126.66;5098316;28;20453;-22
2021/08/20 10:21:33;;;;;;;5.80;3.10;;;;;;;30.52;29.21;100124.84;5091416;28;20093;-22
2021/08/20 10:23:59;;;;;;;6.07;3.07;;;;;;;30.61;27.77;100120.78;5088311;28;20133;-22
2021/08/20 10:26:24;;;;;;;4.57;2.78;;;;;;;31.24;27.77;100131.03;5069938;28;20027;-21
2021/08/20 10:28:50;;;;;;;6.82;3.17;;;;;;;30.82;27.59;100137.03;5053986;28;20020;-22
2021/08/20 10:31:15;;;;;;;5.22;2.70;;;;;;;30.73;28.73;100116.31;5087851;28;20096;-22
2021/08/20 10:33:41;;;;;;;5.63;2.88;;;;;;;30.41;28.15;100117.09;5053465;28;20071;-22
2021/08/20 10:36:06;;;;;;;4.43;2.70;;;;;;;31.20;28.33;100124.63;5087730;28;20112;-22
2021/08/20 10:38:38;;;;;;;4.15;2.90;;;;;;;31.17;27.11;100119.03;5069713;28;20063;-21
2021/08/20 10:41:36;;;;;;;4.40;2.65;;;;;;;30.95;27.57;100117.72;5088481;28;20028;-21
2021/08/20 10:44:10;;;;;;;4.63;2.85;;;;;;;30.75;27.57;100109.34;5069898;28;20048;-21
2021/08/20 10:46:37;;;;;;;4.57;2.97;;;;;;;31.34;25.87;100107.63;5088172;28;20168;-22
2021/08/20 10:51:49;;;;;;;4.50;2.90;;;;;;;31.01;26.55;100105.25;5087639;28;20028;-21
2021/08/20 10:54:24;;;;;;;4.68;2.70;;;;;;;30.84;27.15;100095.38;5087738;28;20039;-22
2021/08/20 10:56:49;;;;;;;6.35;2.75;;;;;;;31.39;25.65;100098.28;5070400;28;20148;-22
2021/08/20 10:59:42;;;;;;;5.07;2.90;;;;;;;31.02;26.67;100095.88;5069495;28;20055;-21
2021/08/20 11:02:20;;;;;;;5.95;3.13;;;;;;;31.32;29.14;100098.91;5087593;28;20024;-21
2021/08/20 11:04:58;;;;;;;4.75;3.00;;;;;;;31.85;27.17;100104.03;5087994;28;20093;-21
2021/08/20 11:07:38;;;;;;;4.13;2.47;;;;;;;31.85;25.22;100087.50;5087241;28;20039;-21
2021/08/20 11:10:10;;;;;;;4.00;2.70;;;;;;;31.47;26.66;100094.56;5087601;28;20043;-21
2021/08/20 11:12:35;;;;;;;4.55;3.00;;;;;;;31.64;27.21;100099.66;5087777;28;20181;-22
2021/08/20 11:15:23;;;;;;;5.85;3.05;;;;;;;31.77;24.89;100083.81;5087802;28;20115;-21
2021/08/20 11:17:50;;;;;;;4.22;2.92;;;;;;;31.78;25.02;100081.84;5087553;28;20024;-22
2021/08/20 11:20:24;;;;;;;4.68;2.75;;;;;;;32.03;27.69;100074.88;5087201;28;20032;-21
2021/08/20 11:23:07;;;;;;;5.68;3.13;;;;;;;31.62;25.76;100090.16;5087372;28;20027;-22